createdAt,value
2022-09-24T00:01:16.046Z,19.03
2022-09-24T00:03:40.181Z,22.20
2022-09-24T00:06:07.726Z,18.90
2022-09-24T00:08:35.300Z,17.58
2022-09-24T00:11:02.825Z,20.37
2022-09-24T00:13:30.359Z,16.73
2022-09-24T00:15:57.949Z,17.57
2022-09-24T00:18:25.452Z,22.40
2022-09-24T00:20:53.761Z,14.83
2022-09-24T00:23:21.327Z,16.70
2022-09-24T00:26:06.799Z,17.47
2022-09-24T00:28:34.355Z,18.27
2022-09-24T00:31:04.914Z,13.97
2022-09-24T00:33:32.338Z,16.73
2022-09-24T00:35:59.916Z,17.20
2022-09-24T00:38:27.447Z,13.93
2022-09-24T00:40:54.971Z,13.57
2022-09-24T00:43:22.527Z,10.53
2022-09-24T00:45:50.061Z,19.17
2022-09-24T00:48:17.590Z,14.82
2022-09-24T00:50:45.160Z,19.08
2022-09-24T00:53:12.685Z,16.33
2022-09-24T00:55:40.987Z,13.97
2022-09-24T00:58:08.553Z,14.17
2022-09-24T01:00:36.209Z,13.43
2022-09-24T01:03:03.651Z,10.67
2022-09-24T01:05:31.215Z,17.83
2022-09-24T01:07:58.750Z,12.80
2022-09-24T01:10:50.537Z,10.80
2022-09-24T01:13:21.045Z,17.33
2022-09-24T01:15:48.601Z,15.80
2022-09-24T01:18:19.883Z,17.63
2022-09-24T01:20:50.145Z,13.40
2022-09-24T01:23:27.200Z,22.27
2022-09-24T01:25:57.640Z,14.53
2022-09-24T01:28:44.130Z,14.70
2022-09-24T01:31:11.685Z,18.57
2022-09-24T01:33:39.179Z,15.55
2022-09-24T01:36:06.742Z,15.07
2022-09-24T01:38:37.134Z,15.07
2022-09-24T01:41:04.648Z,14.77
2022-09-24T01:43:32.233Z,13.60
2022-09-24T01:45:59.747Z,12.13
2022-09-24T01:48:27.281Z,16.10
2022-09-24T01:51:10.284Z,18.20
2022-09-24T01:53:46.633Z,16.67
2022-09-24T01:56:14.188Z,17.17
2022-09-24T01:58:41.741Z,16.30
2022-09-24T02:01:09.342Z,12.00
2022-09-24T02:03:36.794Z,18.37
2022-09-24T02:06:10.048Z,15.03
2022-09-24T02:08:40.429Z,15.30
2022-09-24T02:11:11.652Z,15.27
2022-09-24T02:13:39.208Z,15.27
2022-09-24T02:16:06.790Z,19.23
2022-09-24T02:18:34.291Z,17.73
2022-09-24T02:21:01.832Z,15.17
2022-09-24T02:23:29.366Z,16.47
2022-09-24T02:25:57.682Z,14.17
2022-09-24T02:28:25.253Z,15.23
2022-09-24T02:30:52.790Z,15.03
2022-09-24T02:33:38.735Z,15.70
2022-09-24T02:36:06.270Z,13.47
2022-09-24T02:38:33.805Z,15.53
2022-09-24T02:41:01.369Z,16.23
2022-09-24T02:43:28.913Z,12.63
2022-09-24T02:45:56.440Z,18.30
2022-09-24T02:48:24.790Z,14.03
2022-09-24T02:50:52.315Z,13.40
2022-09-24T02:53:19.849Z,20.23
2022-09-24T02:55:48.191Z,15.30
2022-09-24T02:58:15.737Z,13.90
2022-09-24T03:00:43.282Z,15.68
2022-09-24T03:03:10.956Z,12.70
2022-09-24T03:05:38.410Z,16.97
2022-09-24T03:08:05.945Z,11.83
2022-09-24T03:10:33.498Z,13.17
2022-09-24T03:13:01.024Z,14.77
2022-09-24T03:15:29.327Z,13.83
2022-09-24T03:17:56.871Z,16.63
2022-09-24T03:20:25.175Z,15.53
2022-09-24T03:22:52.698Z,13.57
2022-09-24T03:25:21.025Z,17.40
2022-09-24T03:27:48.576Z,18.43
2022-09-24T03:30:34.356Z,10.77
2022-09-24T03:33:01.920Z,18.60
2022-09-24T03:35:29.444Z,18.03
2022-09-24T03:37:57.777Z,17.17
2022-09-24T03:40:25.406Z,14.10
2022-09-24T03:42:52.877Z,11.77
2022-09-24T03:45:20.429Z,12.13
2022-09-24T03:47:47.965Z,14.17
2022-09-24T03:50:15.509Z,15.73
2022-09-24T03:52:43.833Z,14.83
2022-09-24T03:55:11.367Z,14.40
2022-09-24T03:57:38.911Z,12.57
2022-09-24T04:00:07.283Z,12.40
2022-09-24T04:02:35.661Z,14.13
2022-09-24T04:05:03.118Z,13.00
2022-09-24T04:07:31.444Z,13.97
2022-09-24T04:09:58.988Z,11.27
2022-09-24T04:12:26.502Z,12.77
2022-09-24T04:14:54.825Z,14.80
2022-09-24T04:17:22.359Z,14.57
2022-09-24T04:19:49.884Z,13.17
2022-09-24T04:22:17.459Z,15.03
2022-09-24T04:24:45.771Z,14.10
2022-09-24T04:27:13.326Z,11.50
2022-09-24T04:29:40.900Z,14.60
2022-09-24T04:32:08.424Z,11.37
2022-09-24T04:34:36.758Z,12.90
2022-09-24T04:37:05.306Z,10.83
2022-09-24T04:39:32.850Z,16.00
2022-09-24T04:42:00.399Z,11.77
2022-09-24T04:44:28.708Z,15.00
2022-09-24T04:46:56.284Z,14.07
2022-09-24T04:49:24.526Z,12.60
2022-09-24T04:51:52.100Z,13.70
2022-09-24T04:54:19.625Z,11.73
2022-09-24T04:56:47.918Z,13.27
2022-09-24T04:59:15.806Z,14.43
2022-09-24T05:01:43.441Z,15.47
2022-09-24T05:04:11.624Z,14.27
2022-09-24T05:06:39.218Z,18.07
2022-09-24T05:09:10.387Z,11.90
2022-09-24T05:11:34.279Z,13.97
2022-09-24T05:14:02.610Z,14.63
2022-09-24T05:16:30.198Z,11.60
2022-09-24T05:18:57.754Z,15.03
2022-09-24T05:21:25.323Z,12.93
2022-09-24T05:23:52.867Z,12.87
2022-09-24T05:26:38.617Z,12.20
2022-09-24T05:29:06.145Z,13.90
2022-09-24T05:31:34.484Z,14.10
2022-09-24T05:34:02.009Z,13.93
2022-09-24T05:36:29.534Z,17.07
2022-09-24T05:38:57.851Z,11.60
2022-09-24T05:41:25.395Z,14.57
2022-09-24T05:43:52.916Z,17.30
2022-09-24T05:46:21.277Z,20.57
2022-09-24T05:48:48.812Z,17.37
2022-09-24T05:51:16.348Z,12.47
2022-09-24T05:53:43.891Z,16.27
2022-09-24T05:56:11.456Z,12.30
2022-09-24T05:58:38.993Z,16.63
2022-09-24T06:01:07.294Z,13.17
2022-09-24T06:03:34.878Z,10.43
2022-09-24T06:06:02.440Z,11.67
2022-09-24T06:08:29.957Z,14.47
2022-09-24T06:11:01.234Z,14.83
2022-09-24T06:13:28.759Z,15.80
2022-09-24T06:16:02.347Z,12.37
2022-09-24T06:18:29.882Z,13.87
2022-09-24T06:20:57.443Z,15.83
2022-09-24T06:23:24.972Z,18.30
2022-09-24T06:25:52.547Z,20.60
2022-09-24T06:28:20.089Z,21.93
2022-09-24T06:30:47.614Z,13.80
2022-09-24T06:33:15.986Z,14.13
2022-09-24T06:35:44.297Z,12.03
2022-09-24T06:38:11.863Z,15.33
2022-09-24T06:40:40.200Z,13.20
2022-09-24T06:43:07.721Z,14.77
2022-09-24T06:45:35.236Z,12.30
2022-09-24T06:48:02.824Z,17.00
2022-09-24T06:50:30.347Z,14.00
2022-09-24T06:52:57.871Z,15.60
2022-09-24T06:55:26.635Z,13.33
2022-09-24T06:58:09.264Z,20.77
2022-09-24T07:00:36.917Z,16.37
2022-09-24T07:03:05.140Z,14.35
2022-09-24T07:05:32.677Z,12.87
2022-09-24T07:08:00.249Z,13.47
2022-09-24T07:10:28.562Z,13.87
2022-09-24T07:12:56.097Z,10.70
2022-09-24T07:15:23.919Z,14.33
2022-09-24T07:17:51.462Z,10.90
2022-09-24T07:20:19.012Z,10.90
2022-09-24T07:22:46.603Z,10.67
2022-09-24T07:25:14.138Z,11.47
2022-09-24T07:27:41.672Z,12.05
2022-09-24T07:30:10.556Z,11.53
2022-09-24T07:32:38.090Z,11.43
2022-09-24T07:35:06.610Z,10.07
2022-09-24T07:37:34.215Z,11.60
2022-09-24T07:40:01.749Z,12.57
2022-09-24T07:42:29.282Z,11.07
2022-09-24T07:44:56.848Z,9.43
2022-09-24T07:47:24.393Z,6.80
2022-09-24T07:49:51.926Z,8.57
2022-09-24T07:52:20.289Z,8.37
2022-09-24T07:54:47.825Z,6.57
2022-09-24T07:57:15.369Z,10.17
2022-09-24T07:59:42.952Z,8.77
2022-09-24T08:02:13.226Z,25.07
2022-09-24T08:04:40.729Z,23.65
2022-09-24T08:07:08.326Z,32.13
2022-09-24T08:09:36.617Z,13.60
2022-09-24T08:12:04.152Z,12.90
2022-09-24T08:14:31.758Z,22.17
2022-09-24T08:16:59.290Z,11.50
2022-09-24T08:19:26.827Z,14.33
2022-09-24T08:21:55.176Z,13.57
2022-09-24T08:24:22.701Z,10.47
2022-09-24T08:26:50.228Z,8.40
2022-09-24T08:29:18.579Z,14.37
2022-09-24T08:31:46.174Z,11.80
2022-09-24T08:34:13.637Z,9.75
2022-09-24T08:36:43.119Z,10.20
2022-09-24T08:39:08.795Z,12.63
2022-09-24T08:41:48.156Z,36.55
2022-09-24T08:44:15.690Z,12.63
2022-09-24T08:47:04.335Z,8.48
2022-09-24T08:49:32.598Z,24.47
2022-09-24T08:52:06.060Z,12.67
2022-09-24T08:54:34.403Z,10.37
2022-09-24T08:57:01.940Z,12.03
2022-09-24T08:59:32.507Z,14.25
2022-09-24T09:02:21.410Z,18.53
2022-09-24T09:05:06.801Z,10.50
2022-09-24T09:07:40.077Z,8.63
2022-09-24T09:10:10.577Z,11.17
2022-09-24T09:12:38.110Z,11.67
2022-09-24T09:15:05.693Z,16.80
2022-09-24T09:17:55.330Z,7.60
2022-09-24T09:20:22.888Z,8.67
2022-09-24T09:22:50.435Z,19.43
2022-09-24T09:25:27.832Z,21.83
2022-09-24T09:28:01.257Z,20.00
2022-09-24T09:30:28.770Z,12.10
2022-09-24T09:33:20.842Z,8.38
2022-09-24T09:35:48.385Z,17.53
2022-09-24T09:38:30.995Z,6.97
2022-09-24T09:41:04.308Z,11.07
2022-09-24T09:43:32.534Z,17.00
2022-09-24T09:46:11.736Z,17.87
2022-09-24T09:48:42.226Z,18.63
2022-09-24T09:51:09.771Z,16.13
2022-09-24T09:53:37.354Z,12.67
2022-09-24T09:56:04.888Z,13.90
2022-09-24T09:58:35.339Z,9.37
2022-09-24T10:01:14.905Z,29.73
2022-09-24T10:03:45.444Z,10.43
2022-09-24T10:06:12.939Z,10.35
2022-09-24T10:08:40.535Z,11.93
2022-09-24T10:11:08.067Z,9.23
2022-09-24T10:13:35.592Z,11.00
2022-09-24T10:16:04.875Z,8.53
2022-09-24T10:18:38.370Z,9.23
2022-09-24T10:21:05.905Z,8.63
2022-09-24T10:23:36.375Z,7.80
2022-09-24T10:26:04.677Z,9.50
2022-09-24T10:28:50.161Z,11.27
2022-09-24T10:31:23.280Z,9.13
2022-09-24T10:33:50.797Z,8.07
2022-09-24T10:36:20.933Z,10.87
2022-09-24T10:38:48.453Z,9.43
2022-09-24T10:41:25.539Z,10.60
2022-09-24T10:43:53.881Z,8.00
2022-09-24T10:46:26.999Z,7.53
2022-09-24T10:49:16.854Z,9.70
2022-09-24T10:51:50.748Z,10.63
2022-09-24T10:54:42.742Z,9.33
2022-09-24T10:57:12.847Z,7.37
2022-09-24T10:59:43.886Z,9.47
2022-09-24T11:02:21.292Z,8.87
2022-09-24T11:04:51.540Z,7.33
2022-09-24T11:07:21.545Z,13.97
2022-09-24T11:09:49.100Z,8.93
2022-09-24T11:12:22.631Z,10.77
2022-09-24T11:15:08.846Z,8.77
2022-09-24T11:17:45.210Z,10.10
2022-09-24T11:20:15.452Z,8.97
2022-09-24T11:22:52.263Z,10.10
2022-09-24T11:25:31.625Z,9.17
2022-09-24T11:28:29.553Z,8.90
2022-09-24T11:31:24.362Z,11.73
2022-09-24T11:34:07.732Z,9.40
2022-09-24T11:36:41.241Z,12.70
2022-09-24T11:39:26.901Z,9.80
2022-09-24T11:42:06.154Z,13.53
2022-09-24T11:44:55.161Z,13.73
2022-09-24T11:47:40.954Z,10.48
2022-09-24T11:50:14.256Z,14.70
2022-09-24T11:52:41.791Z,11.43
2022-09-24T11:55:13.036Z,14.17
2022-09-24T11:57:40.572Z,10.33
2022-09-24T12:00:08.275Z,9.93
2022-09-24T12:02:38.404Z,12.40
2022-09-24T12:05:42.796Z,12.10
2022-09-24T12:08:12.805Z,18.07
2022-09-24T12:10:44.060Z,10.17
2022-09-24T12:13:30.351Z,9.00
2022-09-24T12:16:01.177Z,10.27
2022-09-24T12:18:44.827Z,10.27
2022-09-24T12:21:13.139Z,11.17
2022-09-24T12:23:40.695Z,12.37
2022-09-24T12:26:08.348Z,13.90
2022-09-24T12:29:03.118Z,11.17
2022-09-24T12:32:01.364Z,11.33
2022-09-24T12:34:50.261Z,12.30
2022-09-24T12:37:17.835Z,12.10
2022-09-24T12:40:00.353Z,14.00
2022-09-24T12:42:27.920Z,12.83
2022-09-24T12:44:57.069Z,17.30
2022-09-24T12:47:25.372Z,11.13
2022-09-24T12:50:02.518Z,11.60
2022-09-24T12:52:41.984Z,12.07
2022-09-24T12:55:25.147Z,14.65
2022-09-24T12:58:07.499Z,17.67
2022-09-24T13:00:43.848Z,14.67
2022-09-24T13:05:45.542Z,18.70
2022-09-24T13:08:22.145Z,14.37
2022-09-24T13:10:58.669Z,13.10
2022-09-24T13:13:28.862Z,15.37
2022-09-24T13:16:05.163Z,16.50
2022-09-24T13:18:32.625Z,18.70
2022-09-24T13:21:03.576Z,17.13
2022-09-24T13:23:31.161Z,16.47
2022-09-24T13:25:58.696Z,12.77
2022-09-24T13:28:37.627Z,20.43
2022-09-24T13:31:02.775Z,14.00
2022-09-24T13:33:33.943Z,12.03
2022-09-24T13:36:01.477Z,12.97
2022-09-24T13:38:34.476Z,26.70
2022-09-24T13:41:02.001Z,17.20
2022-09-24T13:43:41.558Z,14.53
2022-09-24T13:46:09.125Z,13.07
2022-09-24T13:48:37.367Z,16.33
2022-09-24T13:51:04.930Z,15.27
2022-09-24T13:53:41.253Z,13.97
2022-09-24T13:56:14.259Z,13.37
2022-09-24T13:58:41.801Z,19.05
2022-09-24T14:01:16.264Z,15.53
2022-09-24T14:03:56.516Z,13.80
2022-09-24T14:06:24.069Z,13.77
2022-09-24T14:08:51.623Z,12.20
2022-09-24T14:11:19.959Z,14.87
2022-09-24T14:13:47.499Z,19.97
2022-09-24T14:16:23.921Z,16.75
2022-09-24T14:19:03.409Z,18.55
2022-09-24T14:21:40.056Z,14.00
2022-09-24T14:24:07.595Z,15.27
2022-09-24T14:26:37.588Z,14.33
2022-09-24T14:29:08.384Z,16.13
2022-09-24T14:31:35.949Z,13.03
2022-09-24T14:34:03.434Z,12.40
2022-09-24T14:36:31.763Z,17.13
2022-09-24T14:38:59.297Z,18.53
2022-09-24T14:41:26.813Z,12.30
2022-09-24T14:43:54.387Z,13.73
2022-09-24T14:46:22.794Z,15.63
2022-09-24T14:48:50.235Z,15.60
2022-09-24T14:51:27.558Z,13.90
2022-09-24T14:54:03.728Z,15.57
2022-09-24T14:56:31.281Z,14.77
2022-09-24T14:58:58.835Z,13.07
2022-09-24T15:01:32.415Z,16.93
2022-09-24T15:04:02.563Z,19.47
2022-09-24T15:06:30.143Z,19.47
2022-09-24T15:09:03.425Z,20.67
2022-09-24T15:11:33.621Z,13.43
2022-09-24T15:14:01.205Z,17.37
2022-09-24T15:16:34.757Z,17.37
2022-09-24T15:19:11.799Z,16.20
2022-09-24T15:21:39.259Z,15.50
2022-09-24T15:24:06.850Z,15.83
2022-09-24T15:26:34.386Z,17.70
2022-09-24T15:29:02.065Z,15.10
2022-09-24T15:31:29.549Z,16.83
2022-09-24T15:33:58.035Z,16.20
2022-09-24T15:36:25.588Z,16.87
2022-09-24T15:38:53.883Z,17.37
2022-09-24T15:41:21.476Z,15.77
2022-09-24T15:43:49.024Z,15.93
2022-09-24T15:46:16.622Z,13.33
2022-09-24T15:48:44.159Z,16.10
2022-09-24T15:51:15.429Z,17.80
2022-09-24T15:53:39.239Z,15.53
2022-09-24T15:56:06.892Z,18.77
2022-09-24T15:58:34.447Z,15.37
2022-09-24T16:01:01.991Z,14.03
2022-09-24T16:03:29.604Z,14.47
2022-09-24T16:05:57.139Z,18.03
2022-09-24T16:08:24.683Z,20.15
2022-09-24T16:10:52.269Z,17.80
2022-09-24T16:13:19.814Z,17.70
2022-09-24T16:15:47.406Z,20.10
2022-09-24T16:18:14.965Z,16.77
2022-09-24T16:20:42.564Z,18.23
2022-09-24T16:23:13.545Z,19.70
2022-09-24T16:25:41.139Z,18.27
2022-09-24T16:28:08.674Z,17.23
2022-09-24T16:30:38.479Z,12.93
2022-09-24T16:33:03.822Z,14.53
2022-09-24T16:35:32.133Z,17.92
2022-09-24T16:37:59.679Z,15.37
2022-09-24T16:40:27.317Z,17.77
2022-09-24T16:42:54.808Z,17.40
2022-09-24T16:45:22.418Z,14.30
2022-09-24T16:47:50.704Z,19.53
2022-09-24T16:50:18.229Z,18.30
2022-09-24T16:52:45.767Z,19.27
2022-09-24T16:55:13.339Z,17.87
2022-09-24T16:57:40.893Z,18.07
2022-09-24T17:00:08.591Z,19.23
2022-09-24T17:02:36.208Z,18.37
2022-09-24T17:05:03.704Z,17.37
2022-09-24T17:07:31.227Z,18.70
2022-09-24T17:10:13.865Z,18.57
2022-09-24T17:12:44.248Z,19.50
2022-09-24T17:15:11.822Z,17.73
2022-09-24T17:17:48.563Z,19.77
2022-09-24T17:20:07.049Z,19.67
2022-09-24T17:22:34.584Z,19.00
2022-09-24T17:25:02.178Z,18.37
2022-09-24T17:27:29.702Z,15.17
2022-09-24T17:29:57.305Z,18.50
2022-09-24T17:32:25.629Z,21.00
2022-09-24T17:34:53.922Z,20.10
2022-09-24T17:37:21.453Z,20.37
2022-09-24T17:39:49.825Z,21.53
2022-09-24T17:42:17.349Z,24.03
2022-09-24T17:44:44.905Z,20.47
2022-09-24T17:47:13.463Z,24.07
2022-09-24T17:49:41.009Z,24.58
2022-09-24T17:52:09.311Z,20.97
2022-09-24T17:54:36.903Z,21.27
2022-09-24T17:57:04.439Z,21.07
2022-09-24T17:59:31.963Z,20.43
2022-09-24T18:01:59.628Z,22.27
2022-09-24T18:04:27.092Z,20.03
2022-09-24T18:06:54.638Z,17.27
2022-09-24T18:09:22.999Z,19.67
2022-09-24T18:11:51.311Z,18.13
2022-09-24T18:14:21.635Z,15.83
2022-09-24T18:16:52.096Z,20.60
2022-09-24T18:19:19.638Z,26.80
2022-09-24T18:21:47.181Z,23.90
2022-09-24T18:24:14.774Z,27.93
2022-09-24T18:26:42.321Z,25.27
2022-09-24T18:29:13.042Z,25.83
2022-09-24T18:31:40.575Z,24.47
2022-09-24T18:34:08.087Z,25.40
2022-09-24T18:36:38.249Z,31.33
2022-09-24T18:39:05.936Z,25.60
2022-09-24T18:41:33.380Z,26.80
2022-09-24T18:44:00.930Z,29.63
2022-09-24T18:46:29.318Z,23.27
2022-09-24T18:48:56.808Z,23.77
2022-09-24T18:51:24.372Z,24.83
2022-09-24T18:53:54.715Z,24.80
2022-09-24T18:56:22.269Z,26.93
2022-09-24T18:58:49.792Z,20.07
2022-09-24T19:01:17.538Z,23.13
2022-09-24T19:03:44.940Z,20.23
2022-09-24T19:06:12.496Z,22.40
2022-09-24T19:08:40.089Z,22.70
2022-09-24T19:11:08.402Z,24.35
2022-09-24T19:13:35.986Z,26.20
2022-09-24T19:16:06.660Z,21.00
2022-09-24T19:18:34.148Z,19.10
2022-09-24T19:21:01.685Z,21.70
2022-09-24T19:23:30.032Z,21.03
2022-09-24T19:26:00.024Z,21.07
2022-09-24T19:28:27.535Z,24.35
2022-09-24T19:30:55.999Z,20.57
2022-09-24T19:33:24.229Z,22.73
2022-09-24T19:35:57.544Z,23.37
2022-09-24T19:38:28.082Z,19.63
2022-09-24T19:41:01.633Z,28.07
2022-09-24T19:43:29.186Z,24.80
2022-09-24T19:45:56.806Z,21.27
2022-09-24T19:48:24.344Z,24.33
2022-09-24T19:50:51.879Z,22.57
2022-09-24T19:53:19.483Z,24.13
2022-09-24T19:55:47.028Z,23.33
2022-09-24T19:58:14.573Z,24.67
2022-09-24T20:00:42.157Z,29.53
2022-09-24T20:03:09.766Z,26.60
2022-09-24T20:05:37.256Z,27.77
2022-09-24T20:08:05.813Z,25.23
2022-09-24T20:10:33.368Z,25.13
2022-09-24T20:13:00.903Z,24.20
2022-09-24T20:15:29.301Z,23.67
2022-09-24T20:17:56.797Z,21.40
2022-09-24T20:20:24.344Z,22.67
2022-09-24T20:22:51.939Z,22.17
2022-09-24T20:25:19.483Z,22.37
2022-09-24T20:27:52.927Z,22.57
2022-09-24T20:30:23.605Z,23.00
2022-09-24T20:32:51.245Z,25.97
2022-09-24T20:35:18.700Z,28.70
2022-09-24T20:37:46.275Z,20.27
2022-09-24T20:40:13.860Z,19.97
2022-09-24T20:42:41.373Z,20.97
2022-09-24T20:45:09.025Z,19.40
2022-09-24T20:47:36.581Z,19.77
2022-09-24T20:50:04.124Z,20.27
2022-09-24T20:52:32.773Z,22.33
2022-09-24T20:55:00.268Z,23.37
2022-09-24T20:57:27.813Z,17.67
2022-09-24T20:59:55.396Z,18.53
2022-09-24T21:02:22.973Z,18.47
2022-09-24T21:04:51.244Z,23.43
2022-09-24T21:07:18.839Z,22.37
2022-09-24T21:09:46.385Z,20.27
2022-09-24T21:12:13.942Z,19.90
2022-09-24T21:14:41.502Z,22.27
2022-09-24T21:17:09.058Z,24.37
2022-09-24T21:19:36.608Z,21.60
2022-09-24T21:22:04.150Z,18.37
2022-09-24T21:24:31.852Z,17.83
2022-09-24T21:26:59.997Z,22.50
2022-09-24T21:29:27.600Z,17.73
2022-09-24T21:31:55.135Z,19.67
2022-09-24T21:34:22.690Z,19.37
2022-09-24T21:36:50.255Z,18.40
2022-09-24T21:39:20.913Z,19.80
2022-09-24T21:41:48.445Z,20.93
2022-09-24T21:44:16.020Z,19.07
2022-09-24T21:46:43.564Z,14.97
2022-09-24T21:49:11.100Z,18.17
2022-09-24T21:51:38.672Z,17.17
2022-09-24T21:54:06.275Z,17.20
2022-09-24T21:56:33.752Z,15.77
2022-09-24T21:59:02.119Z,18.33
2022-09-24T22:01:32.308Z,15.13
2022-09-24T22:04:00.544Z,21.43
2022-09-24T22:06:28.110Z,17.70
2022-09-24T22:08:55.667Z,18.03
2022-09-24T22:11:23.200Z,16.93
2022-09-24T22:13:51.550Z,17.13
2022-09-24T22:16:19.169Z,19.23
2022-09-24T22:18:46.651Z,16.87
2022-09-24T22:21:14.215Z,20.27
2022-09-24T22:23:41.757Z,21.98
2022-09-24T22:26:09.299Z,17.87
2022-09-24T22:28:36.902Z,19.17
2022-09-24T22:31:04.567Z,21.47
2022-09-24T22:33:50.219Z,19.17
2022-09-24T22:36:17.782Z,20.90
2022-09-24T22:38:45.306Z,40.20
2022-09-24T22:41:12.891Z,32.20
2022-09-24T22:43:40.445Z,20.60
2022-09-24T22:46:08.056Z,28.13
2022-09-24T22:48:35.533Z,27.57
2022-09-24T22:51:03.866Z,19.27
2022-09-24T22:53:31.382Z,30.10
2022-09-24T22:56:10.997Z,19.23
2022-09-24T22:58:38.531Z,23.63
2022-09-24T23:01:11.783Z,24.57
2022-09-24T23:03:39.337Z,16.83
2022-09-24T23:06:06.876Z,18.60
2022-09-24T23:08:35.193Z,19.07
2022-09-24T23:11:11.891Z,19.00
2022-09-24T23:13:39.436Z,21.50
2022-09-24T23:16:12.467Z,19.63
2022-09-24T23:18:40.838Z,20.33
2022-09-24T23:21:08.393Z,18.43
2022-09-24T23:23:35.915Z,20.97
2022-09-24T23:26:06.522Z,21.05
2022-09-24T23:28:34.056Z,20.20
2022-09-24T23:31:02.415Z,17.53
2022-09-24T23:33:33.204Z,19.80
2022-09-24T23:36:00.732Z,18.77
2022-09-24T23:38:29.033Z,20.93
2022-09-24T23:40:56.653Z,18.77
2022-09-24T23:43:24.129Z,20.67
2022-09-24T23:45:51.699Z,19.03
2022-09-24T23:48:19.287Z,28.43
2022-09-24T23:50:46.813Z,22.17
2022-09-24T23:53:15.114Z,20.90
2022-09-24T23:55:42.670Z,22.80
2022-09-24T23:58:10.206Z,21.77
